Time;durP1;ratioP1;P1;durP2;ratioP2;P2;SDS_P1;SDS_P2;PMS_P1;PMS_P2;Temp;Humidity;BMP_temperature;BMP_pressure;BME280_temperature;BME280_humidity;BME280_pressure;Samples;Min_cycle;Max_cycle;Signal;HPM_P1;HPM_P2
2023/10/20 00:02:14;;;;;;;9.75;3.05;;;;;;;15.27;82.91;96751.28;5001453;28;20053;-48
2023/10/20 00:04:40;;;;;;;9.05;3.58;;;;;;;15.26;82.85;96754.84;5007582;28;20052;-46
2023/10/20 00:07:07;;;;;;;10.25;3.15;;;;;;;15.25;83.02;96760.16;5007827;28;20061;-48
2023/10/20 00:09:34;;;;;;;5.13;2.35;;;;;;;15.26;83.19;96748.78;5006703;28;20050;-49
2023/10/20 00:12:01;;;;;;;8.73;3.20;;;;;;;15.25;82.71;96747.13;5004553;28;20049;-48
2023/10/20 00:14:27;;;;;;;8.05;3.55;;;;;;;15.27;83.16;96750.47;5004772;28;20065;-46
2023/10/20 00:16:54;;;;;;;8.30;2.78;;;;;;;15.27;82.95;96746.06;5006609;28;20081;-50
2023/10/20 00:19:21;;;;;;;7.30;3.38;;;;;;;15.28;82.91;96742.53;5005604;28;20521;-47
2023/10/20 00:21:48;;;;;;;9.27;2.33;;;;;;;15.30;83.11;96745.00;5005170;28;20540;-49
2023/10/20 00:24:15;;;;;;;8.95;3.22;;;;;;;15.30;82.60;96734.56;5007091;28;20466;-49
2023/10/20 00:26:43;;;;;;;6.20;2.90;;;;;;;15.31;82.62;96736.25;5007125;28;20060;-48
2023/10/20 00:29:11;;;;;;;7.45;3.17;;;;;;;15.31;82.78;96735.41;4999392;28;20041;-49
2023/10/20 00:31:38;;;;;;;5.30;2.70;;;;;;;15.31;83.02;96733.63;5006903;28;20049;-49
2023/10/20 00:34:06;;;;;;;12.43;2.80;;;;;;;15.31;82.72;96740.63;5007276;28;20054;-50
2023/10/20 00:36:33;;;;;;;6.30;2.75;;;;;;;15.32;82.88;96743.13;5003893;28;20077;-48
2023/10/20 00:39:02;;;;;;;8.52;2.75;;;;;;;15.30;82.44;96742.38;5007165;28;20099;-50
2023/10/20 00:41:30;;;;;;;10.82;2.58;;;;;;;15.29;82.35;96743.34;5005732;28;20046;-47
2023/10/20 00:43:57;;;;;;;7.90;2.97;;;;;;;15.30;82.27;96734.56;5007102;28;20129;-46
2023/10/20 00:46:25;;;;;;;10.32;3.03;;;;;;;15.29;82.47;96736.34;5007203;28;20050;-51
2023/10/20 00:48:53;;;;;;;13.90;2.88;;;;;;;15.29;82.43;96725.09;5004624;28;20046;-47
2023/10/20 00:51:20;;;;;;;10.90;3.10;;;;;;;15.29;82.27;96727.69;5005924;28;20052;-48
2023/10/20 00:53:48;;;;;;;7.00;2.60;;;;;;;15.30;82.48;96729.34;5006114;28;20057;-46
2023/10/20 00:56:16;;;;;;;9.85;2.85;;;;;;;15.32;82.14;96718.81;5004680;28;20057;-51
2023/10/20 00:58:44;;;;;;;9.45;3.10;;;;;;;15.33;82.35;96721.31;5006114;28;20045;-50
2023/10/20 01:01:13;;;;;;;9.38;3.90;;;;;;;15.34;82.38;96714.31;5006680;28;20054;-50
2023/10/20 01:03:40;;;;;;;11.80;3.00;;;;;;;15.35;82.19;96706.38;5005898;28;20104;-48
2023/10/20 01:06:08;;;;;;;7.72;3.10;;;;;;;15.36;82.42;96702.81;5006279;28;20053;-50
2023/10/20 01:08:34;;;;;;;10.85;3.20;;;;;;;15.36;82.09;96708.03;5004120;28;20046;-48
2023/10/20 01:11:01;;;;;;;10.93;2.90;;;;;;;15.38;82.27;96700.94;5005383;28;20053;-47
2023/10/20 01:13:28;;;;;;;10.45;2.88;;;;;;;15.39;82.12;96697.38;5005530;28;20649;-47
2023/10/20 01:15:55;;;;;;;8.93;3.22;;;;;;;15.41;82.33;96689.44;5006721;28;20053;-51
2023/10/20 01:18:22;;;;;;;7.25;2.38;;;;;;;15.41;82.21;96684.22;4999426;28;20096;-49
2023/10/20 01:20:48;;;;;;;9.93;2.38;;;;;;;15.41;82.49;96679.81;5004906;28;20046;-49
2023/10/20 01:23:15;;;;;;;8.57;2.92;;;;;;;15.41;82.21;96685.03;5005792;28;20141;-48
2023/10/20 01:25:43;;;;;;;9.63;3.13;;;;;;;15.42;81.88;96681.50;5004124;28;20050;-47
2023/10/20 01:28:10;;;;;;;9.45;3.83;;;;;;;15.44;82.53;96672.72;5006488;28;20049;-48
2023/10/20 01:30:36;;;;;;;10.30;4.00;;;;;;;15.42;81.92;96665.84;5006096;28;20073;-50
2023/10/20 01:33:03;;;;;;;12.07;4.05;;;;;;;15.43;81.82;96666.66;5004872;28;20045;-49
2023/10/20 01:35:30;;;;;;;16.17;3.95;;;;;;;15.42;81.69;96657.19;5005043;28;20053;-45
2023/10/20 01:37:57;;;;;;;12.90;3.83;;;;;;;15.42;82.07;96654.59;5005183;28;20056;-51
2023/10/20 01:40:23;;;;;;;11.23;4.15;;;;;;;15.40;82.04;96652.09;5005829;28;20073;-48
2023/10/20 01:42:50;;;;;;;10.63;3.90;;;;;;;15.40;81.89;96652.09;5005823;28;20561;-46
2023/10/20 01:45:17;;;;;;;11.52;3.95;;;;;;;15.40;82.20;96643.47;5002192;28;20055;-51
2023/10/20 01:47:44;;;;;;;14.43;4.65;;;;;;;15.40;81.90;96633.84;5006144;28;20068;-51
2023/10/20 01:50:12;;;;;;;13.88;4.25;;;;;;;15.41;81.99;96635.50;5004831;28;20518;-45
2023/10/20 01:52:39;;;;;;;17.08;4.47;;;;;;;15.41;82.07;96622.47;5006261;28;20054;-52
2023/10/20 01:55:05;;;;;;;9.85;3.65;;;;;;;15.41;81.94;96617.25;5006480;28;20411;-48
2023/10/20 01:57:32;;;;;;;11.25;3.80;;;;;;;15.43;81.84;96614.53;5006518;28;20050;-47
2023/10/20 02:00:01;;;;;;;13.50;5.53;;;;;;;15.42;82.46;96613.72;5000580;28;20685;-53
2023/10/20 02:02:28;;;;;;;15.07;4.75;;;;;;;15.42;81.91;96613.72;4996867;28;20046;-47
2023/10/20 02:04:55;;;;;;;21.70;4.47;;;;;;;15.42;82.19;96616.31;5003494;28;20045;-49
2023/10/20 02:07:21;;;;;;;13.68;4.43;;;;;;;15.40;82.22;96607.78;5005801;28;20046;-48
2023/10/20 02:09:50;;;;;;;11.30;4.25;;;;;;;15.40;81.48;96602.56;5005997;28;20045;-50
2023/10/20 02:12:16;;;;;;;12.20;3.88;;;;;;;15.40;82.02;96599.94;5004878;28;20061;-49
2023/10/20 02:14:43;;;;;;;16.50;4.15;;;;;;;15.39;82.25;96593.09;5003322;28;20573;-47
2023/10/20 02:17:10;;;;;;;12.85;4.43;;;;;;;15.39;82.52;96598.28;5003918;28;20539;-49
2023/10/20 02:19:37;;;;;;;12.50;3.83;;;;;;;15.39;82.10;96587.88;5001920;28;20072;-48
2023/10/20 02:22:04;;;;;;;12.98;4.28;;;;;;;15.39;81.56;96581.81;5006136;28;20069;-49
2023/10/20 02:24:31;;;;;;;12.88;3.70;;;;;;;15.37;82.42;96568.88;5005586;28;20522;-47
2023/10/20 02:26:58;;;;;;;12.63;4.35;;;;;;;15.39;82.60;96566.16;5005633;28;20156;-48
2023/10/20 02:29:25;;;;;;;9.60;4.00;;;;;;;15.39;82.63;96560.94;5003769;28;20048;-49
2023/10/20 02:31:52;;;;;;;11.32;3.78;;;;;;;15.38;82.69;96559.31;5005650;28;20108;-52
2023/10/20 02:34:19;;;;;;;9.05;3.75;;;;;;;15.35;82.12;96560.38;5006681;28;20042;-46
2023/10/20 02:36:48;;;;;;;11.35;4.03;;;;;;;15.36;82.06;96546.38;5008562;28;20057;-47
2023/10/20 02:39:14;;;;;;;17.15;4.25;;;;;;;15.36;82.46;96541.16;5009963;28;20455;-48
2023/10/20 02:41:41;;;;;;;9.57;4.30;;;;;;;15.34;82.29;96530.03;4998786;28;20051;-49
2023/10/20 02:44:08;;;;;;;8.05;4.43;;;;;;;15.33;82.59;96520.53;5006109;28;20392;-49
2023/10/20 02:46:34;;;;;;;10.90;4.47;;;;;;;15.32;82.37;96516.28;5007838;28;20049;-46
2023/10/20 02:49:01;;;;;;;11.63;4.07;;;;;;;15.32;82.21;96512.84;5009993;28;20392;-50
2023/10/20 02:51:28;;;;;;;11.10;4.07;;;;;;;15.30;82.39;96512.97;5008783;28;20076;-49
2023/10/20 02:53:54;;;;;;;8.93;4.10;;;;;;;15.30;82.24;96499.94;5008693;28;20050;-49
2023/10/20 02:56:23;;;;;;;9.15;4.68;;;;;;;15.29;81.93;96498.28;5008401;28;20049;-48
2023/10/20 02:58:50;;;;;;;13.20;4.18;;;;;;;15.28;82.01;96491.41;5007526;28;20046;-48
2023/10/20 03:01:17;;;;;;;10.20;3.90;;;;;;;15.29;82.04;96490.47;5008524;28;20052;-46
2023/10/20 03:03:44;;;;;;;10.40;4.65;;;;;;;15.27;82.12;96487.16;5006880;28;20449;-50
2023/10/20 03:06:11;;;;;;;9.00;4.00;;;;;;;15.27;82.22;96487.16;5007881;28;20045;-49
2023/10/20 03:08:39;;;;;;;12.70;3.92;;;;;;;15.28;82.12;96484.44;5007770;28;20550;-51
2023/10/20 03:11:07;;;;;;;10.52;4.13;;;;;;;15.28;82.09;96475.78;5005921;28;20521;-53
2023/10/20 03:13:35;;;;;;;9.63;3.80;;;;;;;15.28;82.63;96466.19;5005543;28;20557;-49
2023/10/20 03:16:01;;;;;;;9.73;3.67;;;;;;;15.27;82.52;96468.91;5008381;28;20057;-50
2023/10/20 03:18:28;;;;;;;9.50;3.90;;;;;;;15.27;82.82;96458.47;5006916;28;20046;-52
2023/10/20 03:21:00;;;;;;;7.78;3.58;;;;;;;15.26;82.29;96456.81;5008211;28;20042;-48
2023/10/20 03:23:27;;;;;;;7.57;3.40;;;;;;;15.26;82.55;96441.16;5006686;28;20400;-50
2023/10/20 03:25:54;;;;;;;8.57;3.95;;;;;;;15.27;82.87;96437.63;5006906;28;20133;-50
2023/10/20 03:28:21;;;;;;;9.27;3.60;;;;;;;15.27;83.10;96427.19;5007377;28;20073;-46
2023/10/20 03:30:48;;;;;;;9.43;3.53;;;;;;;15.27;82.62;96421.97;5007480;28;20049;-51
2023/10/20 03:33:17;;;;;;;8.65;2.50;;;;;;;15.27;82.60;96432.41;5008136;28;20046;-48
2023/10/20 03:35:45;;;;;;;6.13;2.60;;;;;;;15.27;82.87;96416.78;5008202;28;20054;-49
2023/10/20 03:38:14;;;;;;;6.07;2.72;;;;;;;15.27;82.67;96408.94;5001397;28;20042;-48
2023/10/20 03:40:41;;;;;;;8.45;3.10;;;;;;;15.29;82.74;96409.63;5005678;28;20052;-52
2023/10/20 03:43:10;;;;;;;6.90;2.50;;;;;;;15.29;83.12;96399.22;5006183;28;20050;-50
2023/10/20 03:45:41;;;;;;;6.60;4.18;;;;;;;15.27;83.35;96390.69;5006351;28;20296;-52
2023/10/20 03:48:09;;;;;;;5.05;2.53;;;;;;;15.26;83.03;96383.81;5007394;28;20053;-50
2023/10/20 03:50:38;;;;;;;4.78;2.05;;;;;;;15.25;83.86;96383.00;5007560;28;20041;-53
2023/10/20 03:53:06;;;;;;;5.20;2.40;;;;;;;15.25;83.11;96375.19;5007175;28;20061;-54
2023/10/20 03:55:34;;;;;;;4.93;2.40;;;;;;;15.26;83.66;96368.16;5002208;28;20558;-51
2023/10/20 03:58:02;;;;;;;3.15;1.52;;;;;;;15.26;83.80;96362.97;5004554;28;20391;-50
2023/10/20 04:00:29;;;;;;;5.32;2.08;;;;;;;15.27;83.64;96356.81;5006823;28;20041;-51
2023/10/20 04:02:56;;;;;;;2.75;1.58;;;;;;;15.29;83.83;96357.50;5006866;28;20046;-47
2023/10/20 04:05:24;;;;;;;2.78;1.45;;;;;;;15.29;83.32;96352.28;5006540;28;20064;-50
2023/10/20 04:07:51;;;;;;;2.78;2.22;;;;;;;15.30;83.37;96343.50;5001275;28;20419;-49
2023/10/20 04:10:19;;;;;;;3.15;1.58;;;;;;;15.31;83.54;96355.63;5007890;28;20490;-51
2023/10/20 04:12:47;;;;;;;2.83;1.00;;;;;;;15.33;83.38;96335.44;5002298;28;20133;-50
2023/10/20 04:15:16;;;;;;;3.05;1.20;;;;;;;15.34;83.32;96331.91;5007020;28;20132;-49
2023/10/20 04:17:44;;;;;;;4.90;1.10;;;;;;;15.35;83.48;96333.56;5007444;28;20057;-49
2023/10/20 04:20:18;;;;;;;2.10;1.25;;;;;;;15.35;83.24;96323.13;4998344;28;20103;-51
2023/10/20 04:22:50;;;;;;;2.45;0.98;;;;;;;15.37;83.62;96315.97;5005286;28;20058;-49
2023/10/20 04:25:20;;;;;;;3.45;0.63;;;;;;;15.38;83.29;96314.22;5006363;28;20049;-51
2023/10/20 04:57:52;;;;;;;3.42;1.00;;;;;;;15.44;84.91;96208.59;5067951;27;20398;-50
2023/10/20 05:08:17;;;;;;;1.92;0.98;;;;;;;15.50;84.52;96202.88;5052626;27;20395;-51
2023/10/20 05:10:44;;;;;;;2.13;1.05;;;;;;;15.51;84.90;96199.28;5023042;28;20087;-50
2023/10/20 05:13:11;;;;;;;1.70;1.02;;;;;;;15.52;85.13;96200.94;5042262;28;20057;-48
2023/10/20 05:15:38;;;;;;;1.77;0.80;;;;;;;15.52;84.89;96196.56;5033739;28;20053;-52
2023/10/20 05:18:06;;;;;;;1.40;0.73;;;;;;;15.52;85.27;96203.53;5035351;28;20132;-51
2023/10/20 05:20:36;;;;;;;1.85;0.77;;;;;;;15.49;85.32;96185.53;5037500;28;20057;-50
2023/10/20 05:23:04;;;;;;;2.25;1.10;;;;;;;15.51;85.00;96191.47;5024209;28;20052;-51
2023/10/20 05:25:31;;;;;;;2.60;1.92;;;;;;;15.52;84.58;96186.13;5029413;28;20060;-51
2023/10/20 05:27:57;;;;;;;2.83;1.50;;;;;;;15.50;84.83;96188.03;5040154;28;20037;-50
2023/10/20 05:30:24;;;;;;;1.83;1.00;;;;;;;15.50;85.09;96192.44;5035899;28;20512;-52
2023/10/20 05:32:51;;;;;;;2.45;1.10;;;;;;;15.51;84.78;96188.88;5040842;28;20184;-48
2023/10/20 05:35:18;;;;;;;3.10;1.20;;;;;;;15.55;84.66;96188.47;5041292;28;20079;-49
2023/10/20 05:37:45;;;;;;;2.08;1.17;;;;;;;15.56;84.52;96186.69;5039082;28;20053;-49
2023/10/20 05:40:15;;;;;;;1.58;0.98;;;;;;;15.54;84.66;96183.38;5036630;28;20054;-50
2023/10/20 05:42:42;;;;;;;2.58;1.10;;;;;;;15.58;84.31;96182.16;5033783;28;20127;-47
2023/10/20 05:45:09;;;;;;;1.45;0.80;;;;;;;15.55;84.64;96179.81;5034783;28;20516;-48
2023/10/20 05:47:38;;;;;;;1.77;1.08;;;;;;;15.55;84.31;96175.44;5038326;28;20048;-51
2023/10/20 05:50:06;;;;;;;1.80;1.10;;;;;;;15.56;84.41;96173.63;5034211;28;20125;-51
2023/10/20 05:52:35;;;;;;;2.28;1.10;;;;;;;15.51;84.92;96178.44;5035009;28;20585;-50
2023/10/20 05:55:03;;;;;;;1.50;0.65;;;;;;;15.53;84.66;96166.06;5034670;28;20041;-47
2023/10/20 05:57:30;;;;;;;2.55;0.63;;;;;;;15.54;84.51;96167.75;5034610;28;20136;-52
2023/10/20 06:00:00;;;;;;;1.73;0.75;;;;;;;15.51;84.82;96170.59;5033806;28;20045;-49
2023/10/20 06:02:28;;;;;;;1.73;0.63;;;;;;;15.47;84.77;96156.19;5041161;28;20045;-52
2023/10/20 06:04:55;;;;;;;2.30;0.47;;;;;;;15.45;84.66;96152.88;5040206;28;20064;-50
2023/10/20 06:07:21;;;;;;;2.83;1.10;;;;;;;15.47;84.56;96154.38;5031440;28;20045;-47
2023/10/20 06:09:49;;;;;;;1.70;0.80;;;;;;;15.49;83.80;96154.25;5038764;28;20422;-50
2023/10/20 06:12:16;;;;;;;2.40;1.02;;;;;;;15.43;84.48;96153.00;5034780;28;20084;-48
2023/10/20 06:14:43;;;;;;;3.28;1.27;;;;;;;15.42;84.15;96149.59;5040482;28;20041;-50
2023/10/20 06:17:10;;;;;;;2.00;1.13;;;;;;;15.41;84.23;96158.34;5038035;28;20634;-49
2023/10/20 06:19:37;;;;;;;2.45;1.45;;;;;;;15.39;84.58;96162.88;5019497;28;20136;-51
2023/10/20 06:22:05;;;;;;;2.10;1.02;;;;;;;15.40;84.49;96158.50;5021684;28;20042;-47
2023/10/20 06:24:33;;;;;;;2.00;1.00;;;;;;;15.38;84.86;96163.84;5020404;28;20963;-51
2023/10/20 06:27:02;;;;;;;2.25;1.00;;;;;;;15.38;84.23;96156.00;5027505;28;20042;-47
2023/10/20 06:34:46;;;;;;;3.13;1.63;;;;;;;15.51;84.78;96163.59;5063309;28;20958;-51
2023/10/20 06:37:22;;;;;;;2.83;1.60;;;;;;;15.45;84.58;96158.09;5058052;28;20045;-51
2023/10/20 06:39:49;;;;;;;2.47;1.23;;;;;;;15.46;85.41;96164.94;5061925;28;20060;-48
2023/10/20 06:42:16;;;;;;;2.28;1.45;;;;;;;15.45;85.47;96158.09;5062913;28;20052;-49
2023/10/20 06:44:43;;;;;;;1.85;1.58;;;;;;;15.44;85.31;96167.69;5061467;28;20075;-50
2023/10/20 06:47:11;;;;;;;3.88;1.30;;;;;;;15.46;84.95;96173.59;5061658;28;20048;-48
2023/10/20 06:49:37;;;;;;;2.05;1.25;;;;;;;15.47;85.26;96161.41;5059083;28;20490;-51
2023/10/20 06:52:04;;;;;;;2.88;2.03;;;;;;;15.47;85.10;96166.63;5041547;28;20483;-48
2023/10/20 06:54:31;;;;;;;1.80;1.17;;;;;;;15.47;84.90;96159.59;5061203;28;20073;-51
2023/10/20 06:56:59;;;;;;;4.35;1.40;;;;;;;15.48;84.81;96168.25;5062622;28;20056;-51
2023/10/20 06:59:26;;;;;;;2.47;1.08;;;;;;;15.41;85.33;96173.97;5062704;28;20048;-47
2023/10/20 07:01:57;;;;;;;2.28;1.52;;;;;;;15.46;85.11;96176.22;5057836;28;20434;-51
2023/10/20 07:04:25;;;;;;;2.60;1.85;;;;;;;15.49;85.08;96173.34;5058962;28;20041;-51
2023/10/20 07:06:52;;;;;;;2.17;1.10;;;;;;;15.49;84.86;96169.91;5060758;28;20057;-51
2023/10/20 07:09:21;;;;;;;5.00;1.52;;;;;;;15.51;85.00;96170.59;5055518;28;20076;-49
2023/10/20 07:11:48;;;;;;;2.97;1.88;;;;;;;15.53;84.60;96181.72;5046459;28;20045;-50
2023/10/20 07:14:15;;;;;;;3.03;1.30;;;;;;;15.54;84.91;96178.19;5056710;28;20044;-48
2023/10/20 07:16:42;;;;;;;4.47;2.03;;;;;;;15.54;84.81;96183.38;5062534;28;20045;-50
2023/10/20 07:19:09;;;;;;;2.03;1.42;;;;;;;15.49;84.92;96183.78;5060458;28;20055;-50
2023/10/20 07:21:36;;;;;;;2.75;1.88;;;;;;;15.51;85.02;96183.66;5036668;28;20052;-49
2023/10/20 07:24:03;;;;;;;3.83;1.75;;;;;;;15.50;85.06;96180.19;5036522;28;20068;-48
2023/10/20 07:26:30;;;;;;;2.92;1.48;;;;;;;15.47;85.21;96177.03;5039839;28;20521;-50
2023/10/20 07:28:56;;;;;;;1.60;1.23;;;;;;;15.45;84.95;96184.16;5041065;28;20521;-49
2023/10/20 07:31:24;;;;;;;2.38;1.33;;;;;;;15.46;84.76;96183.19;5039521;28;20068;-47
2023/10/20 07:33:53;;;;;;;2.60;1.52;;;;;;;15.46;85.03;96185.78;5037962;28;20080;-48
2023/10/20 07:36:20;;;;;;;1.85;1.40;;;;;;;15.47;85.01;96182.25;5040684;28;20063;-50
2023/10/20 07:38:47;;;;;;;1.98;1.65;;;;;;;15.44;84.84;96187.72;5039457;28;20049;-50
2023/10/20 07:41:14;;;;;;;1.80;1.35;;;;;;;15.46;85.09;96180.59;5040690;28;20047;-49
2023/10/20 07:43:41;;;;;;;1.60;1.15;;;;;;;15.48;84.35;96183.91;5042421;28;20124;-49
2023/10/20 07:46:16;;;;;;;1.63;1.20;;;;;;;15.46;84.32;96180.59;5025140;28;20052;-52
2023/10/20 07:48:44;;;;;;;2.42;1.27;;;;;;;15.49;84.03;96182.94;5027112;28;20049;-50
2023/10/20 07:51:11;;;;;;;2.20;1.40;;;;;;;15.46;84.33;96180.59;5029048;28;20041;-47
2023/10/20 07:53:38;;;;;;;3.03;1.52;;;;;;;15.45;83.99;96182.38;5027652;28;20041;-50
2023/10/20 07:56:05;;;;;;;3.58;1.77;;;;;;;15.42;84.34;96180.88;5031201;28;20051;-50
2023/10/20 07:58:33;;;;;;;1.88;1.10;;;;;;;15.41;84.19;96188.81;5039518;28;20045;-47
2023/10/20 08:01:00;;;;;;;2.03;1.00;;;;;;;15.38;84.23;96187.31;5026681;28;20076;-52
2023/10/20 08:03:27;;;;;;;1.83;1.25;;;;;;;15.40;83.89;96193.19;5024642;28;20049;-52
2023/10/20 08:05:55;;;;;;;1.55;1.40;;;;;;;15.39;84.01;96191.56;5024844;28;20056;-55
2023/10/20 08:08:22;;;;;;;1.83;1.00;;;;;;;15.37;84.01;96188.22;5023379;28;20140;-48
2023/10/20 08:10:49;;;;;;;3.47;1.58;;;;;;;15.39;83.92;96191.56;5019237;28;20097;-51
2023/10/20 08:13:17;;;;;;;1.98;0.90;;;;;;;15.38;83.58;96187.31;5027499;28;20056;-49
2023/10/20 08:15:44;;;;;;;2.05;1.00;;;;;;;15.38;83.83;96189.91;5027987;28;20085;-50
2023/10/20 08:18:11;;;;;;;4.40;1.40;;;;;;;15.39;83.51;96188.09;5027306;28;20053;-50
2023/10/20 08:20:38;;;;;;;2.65;1.42;;;;;;;15.38;84.07;96189.91;5023208;28;20049;-47
2023/10/20 08:23:05;;;;;;;3.55;1.50;;;;;;;15.41;83.82;96194.03;5027216;28;20057;-48
2023/10/20 08:25:36;;;;;;;2.75;1.08;;;;;;;15.38;84.20;96189.91;5023086;28;20041;-49
2023/10/20 08:28:04;;;;;;;3.90;3.10;;;;;;;15.40;83.78;96193.19;5027073;28;20568;-50
2023/10/20 08:30:31;;;;;;;2.45;1.40;;;;;;;15.40;84.06;96193.19;5027416;28;20046;-49
2023/10/20 08:32:59;;;;;;;2.92;2.45;;;;;;;15.40;84.67;96190.59;5027778;28;20045;-48
2023/10/20 08:35:26;;;;;;;2.53;1.40;;;;;;;15.42;83.94;96195.69;5026418;28;20132;-48
2023/10/20 08:37:53;;;;;;;3.10;1.90;;;;;;;15.42;83.48;96191.28;5022326;28;20037;-51
2023/10/20 08:40:19;;;;;;;2.60;2.33;;;;;;;15.42;84.20;96196.50;5027873;28;20156;-49
2023/10/20 08:42:46;;;;;;;2.38;1.60;;;;;;;15.42;83.72;96191.28;5030385;28;20049;-53
2023/10/20 08:45:14;;;;;;;2.88;1.13;;;;;;;15.43;83.48;96186.88;5027482;28;20125;-50
2023/10/20 08:47:42;;;;;;;3.47;1.58;;;;;;;15.43;83.92;96186.88;5027215;28;20087;-50
2023/10/20 08:50:10;;;;;;;4.07;1.13;;;;;;;15.45;83.97;96184.16;5026430;28;20053;-48
2023/10/20 08:52:38;;;;;;;3.22;1.73;;;;;;;15.45;83.78;96189.38;5024604;28;20111;-50
2023/10/20 08:55:07;;;;;;;2.85;1.63;;;;;;;15.45;82.93;96173.72;5025766;28;20061;-51
2023/10/20 08:57:34;;;;;;;1.90;1.70;;;;;;;15.46;83.55;96180.59;5044400;28;20072;-51
2023/10/20 09:00:01;;;;;;;2.92;1.90;;;;;;;15.45;83.34;96178.94;5031098;28;20041;-50
2023/10/20 09:02:37;;;;;;;2.03;1.55;;;;;;;15.44;83.35;96182.50;5036180;28;20051;-52
2023/10/20 09:05:04;;;;;;;1.70;1.30;;;;;;;15.43;83.37;96176.47;5039626;28;20091;-53
2023/10/20 09:07:31;;;;;;;2.85;1.95;;;;;;;15.44;83.27;96183.34;5025964;28;20075;-52
2023/10/20 09:09:57;;;;;;;1.77;0.75;;;;;;;15.44;83.60;96177.28;5026638;28;20042;-51
2023/10/20 09:12:24;;;;;;;1.55;1.00;;;;;;;15.42;83.79;96187.84;5026162;28;20056;-49
2023/10/20 09:14:56;;;;;;;1.45;1.17;;;;;;;15.39;83.67;96186.34;5025759;28;20052;-49
2023/10/20 09:17:23;;;;;;;2.65;0.80;;;;;;;15.39;83.78;96188.09;5027024;28;20041;-52
2023/10/20 09:19:50;;;;;;;1.63;1.42;;;;;;;15.35;83.06;96195.38;5025209;28;20057;-51
2023/10/20 09:22:32;;;;;;;1.27;0.75;;;;;;;15.26;83.11;96186.53;5026675;28;20077;-50
2023/10/20 09:24:59;;;;;;;0.88;0.70;;;;;;;15.29;83.55;96188.06;5046998;28;20053;-48
2023/10/20 09:27:29;;;;;;;;;;;;;;;15.12;83.46;96187.69;5043026;28;20107;-49
2023/10/20 09:29:57;;;;;;;1.00;0.40;;;;;;;15.21;83.10;96193.09;5032282;28;19928;-51
2023/10/20 09:32:23;;;;;;;2.05;0.70;;;;;;;15.12;82.96;96195.53;5026446;28;20037;-49
2023/10/20 09:34:52;;;;;;;1.50;0.73;;;;;;;15.11;83.10;96191.28;5026619;28;20562;-50
2023/10/20 09:37:25;;;;;;;1.02;0.93;;;;;;;15.10;82.84;96197.41;5026677;28;20060;-53
2023/10/20 09:39:58;;;;;;;1.20;0.52;;;;;;;15.08;83.21;96194.13;5028384;28;20582;-49
2023/10/20 09:42:26;;;;;;;2.40;1.15;;;;;;;15.06;83.11;96197.81;5026541;28;20120;-47
2023/10/20 09:45:06;;;;;;;0.88;0.68;;;;;;;15.00;82.52;96193.94;5018077;28;20136;-49
2023/10/20 09:47:35;;;;;;;0.90;0.52;;;;;;;15.02;82.89;96195.47;5023278;28;20767;-50
2023/10/20 09:50:02;;;;;;;0.90;0.40;;;;;;;15.01;82.95;96198.19;5026172;28;20052;-51
2023/10/20 09:52:30;;;;;;;1.17;1.08;;;;;;;15.02;82.49;96189.41;5026650;28;20048;-48
2023/10/20 09:54:58;;;;;;;1.20;1.00;;;;;;;15.02;82.60;96197.22;5022949;28;20052;-48
2023/10/20 09:57:27;;;;;;;0.70;0.50;;;;;;;15.02;83.18;96203.28;5015129;28;20502;-47
2023/10/20 09:59:54;;;;;;;1.73;0.65;;;;;;;15.01;83.12;96203.41;5022843;28;20651;-49
2023/10/20 10:02:30;;;;;;;1.00;0.52;;;;;;;14.95;82.85;96194.31;5026727;28;20045;-50
2023/10/20 10:04:57;;;;;;;2.65;0.65;;;;;;;14.96;82.92;96197.75;5026509;28;20053;-48
2023/10/20 10:07:32;;;;;;;1.15;0.20;;;;;;;14.94;82.96;96199.66;5024655;28;20499;-48
2023/10/20 10:09:59;;;;;;;1.42;1.13;;;;;;;14.95;82.05;96201.28;5026695;28;20103;-51
2023/10/20 10:12:27;;;;;;;1.27;0.40;;;;;;;14.91;82.43;96205.94;5010034;28;20055;-54
2023/10/20 10:17:30;;;;;;;1.05;0.98;;;;;;;14.92;82.71;96204.19;5106281;27;20398;-49
2023/10/20 10:19:58;;;;;;;0.60;0.40;;;;;;;14.90;82.64;96197.28;5077470;28;20064;-49
2023/10/20 10:22:27;;;;;;;0.68;0.20;;;;;;;14.87;82.27;96202.78;5073993;28;20652;-50
2023/10/20 10:24:56;;;;;;;0.65;0.52;;;;;;;14.83;82.77;96200.53;5080059;28;20199;-52
2023/10/20 10:27:26;;;;;;;1.05;0.50;;;;;;;14.82;82.62;96189.28;5071769;28;20053;-47
2023/10/20 10:32:31;;;;;;;0.95;0.80;;;;;;;14.82;82.38;96197.09;5083183;27;20406;-49
2023/10/20 10:34:59;;;;;;;0.82;0.68;;;;;;;14.81;82.73;96202.44;5059351;28;20131;-48
2023/10/20 10:40:19;;;;;;;1.50;1.40;;;;;;;14.79;82.70;96197.34;5057491;28;20899;-52
2023/10/20 10:42:49;;;;;;;1.60;1.20;;;;;;;14.81;82.50;96198.06;5039762;28;20080;-49
2023/10/20 10:48:12;;;;;;;1.10;0.98;;;;;;;15.03;81.36;96201.50;5053015;27;20420;-51
2023/10/20 10:50:41;;;;;;;0.80;0.57;;;;;;;14.89;82.56;96203.47;5034825;28;20045;-51
2023/10/20 10:53:09;;;;;;;0.95;0.60;;;;;;;14.87;82.97;96201.94;5034293;28;20053;-49
2023/10/20 10:55:36;;;;;;;1.23;0.80;;;;;;;14.81;83.10;96208.47;5036287;28;20505;-50
2023/10/20 10:58:09;;;;;;;0.60;0.60;;;;;;;14.77;82.79;96201.88;5025208;28;20049;-49
2023/10/20 11:00:37;;;;;;;0.68;0.68;;;;;;;14.71;82.82;96212.75;5035807;28;20513;-48
2023/10/20 11:03:05;;;;;;;0.88;0.60;;;;;;;14.77;82.86;96213.09;5040498;28;20435;-51
2023/10/20 11:05:33;;;;;;;0.50;0.47;;;;;;;14.78;82.75;96211.31;5039058;28;20041;-49
2023/10/20 11:08:06;;;;;;;2.05;0.70;;;;;;;14.77;82.55;96217.50;5034443;28;20133;-47
2023/10/20 11:10:35;;;;;;;0.80;0.63;;;;;;;14.77;82.54;96215.69;5033043;28;20045;-51
2023/10/20 11:13:07;;;;;;;1.40;0.60;;;;;;;14.76;82.97;96213.22;5052043;28;20465;-51
2023/10/20 11:15:35;;;;;;;1.00;0.57;;;;;;;14.76;82.73;96213.22;5034815;28;20056;-48
2023/10/20 11:18:04;;;;;;;1.00;0.80;;;;;;;14.73;82.80;96216.06;5035041;28;20049;-49
2023/10/20 11:20:34;;;;;;;3.15;1.02;;;;;;;14.68;82.67;96210.38;5056760;28;20620;-48
2023/10/20 11:23:00;;;;;;;0.80;0.77;;;;;;;14.74;82.56;96215.09;5082736;28;20416;-50
2023/10/20 11:25:28;;;;;;;0.55;0.55;;;;;;;14.69;83.25;96215.47;5077718;28;20049;-48
2023/10/20 11:27:56;;;;;;;1.70;0.80;;;;;;;14.71;83.17;96217.94;5079916;28;20351;-49
2023/10/20 11:33:01;;;;;;;0.52;0.30;;;;;;;14.71;82.95;96220.56;5032588;28;20386;-47
2023/10/20 11:35:28;;;;;;;0.40;0.35;;;;;;;14.73;83.10;96216.06;5022508;28;20053;-47
2023/10/20 11:37:56;;;;;;;0.80;0.70;;;;;;;14.68;82.45;96221.63;5023414;28;20061;-48
2023/10/20 11:40:26;;;;;;;0.52;0.30;;;;;;;14.66;82.35;96215.75;5022934;28;20046;-51
2023/10/20 11:42:53;;;;;;;0.60;0.40;;;;;;;14.64;82.37;96213.25;5022477;28;20041;-52
2023/10/20 11:45:21;;;;;;;0.63;0.63;;;;;;;14.59;82.33;96210.19;5021260;28;20722;-49
2023/10/20 11:47:48;;;;;;;0.80;0.70;;;;;;;14.58;82.54;96211.13;5020421;28;20045;-50
2023/10/20 11:50:15;;;;;;;1.85;0.80;;;;;;;14.60;82.54;96211.84;5022662;28;20126;-48
2023/10/20 11:52:42;;;;;;;1.50;1.05;;;;;;;14.60;82.36;96206.66;5023068;28;20119;-52
2023/10/20 11:55:10;;;;;;;2.00;1.33;;;;;;;14.60;82.63;96205.81;5022488;28;20049;-50
2023/10/20 11:57:38;;;;;;;1.60;1.27;;;;;;;14.58;82.74;96208.53;5023148;28;20060;-54
2023/10/20 12:00:07;;;;;;;1.52;0.88;;;;;;;14.60;82.81;96205.81;5019230;28;20085;-54
2023/10/20 12:02:34;;;;;;;2.08;1.50;;;;;;;14.60;82.47;96206.66;5021062;28;20052;-49
2023/10/20 12:05:02;;;;;;;1.25;0.98;;;;;;;14.55;82.89;96198.38;5022697;28;20050;-52
2023/10/20 12:07:28;;;;;;;1.65;0.98;;;;;;;14.58;82.61;96198.13;5022741;28;20055;-50
2023/10/20 12:09:55;;;;;;;2.40;0.90;;;;;;;14.60;82.94;96204.03;5022906;28;20049;-49
2023/10/20 12:12:22;;;;;;;1.63;1.10;;;;;;;14.61;82.71;96197.88;5020642;28;20640;-50
2023/10/20 12:14:49;;;;;;;2.08;1.90;;;;;;;14.59;83.12;96199.75;5022256;28;20054;-51
2023/10/20 12:17:16;;;;;;;1.17;0.90;;;;;;;14.60;83.10;96198.84;5022670;28;20045;-48
2023/10/20 12:19:43;;;;;;;1.33;0.80;;;;;;;14.60;82.99;96184.97;5022708;28;20077;-50
2023/10/20 12:22:09;;;;;;;1.17;1.00;;;;;;;14.60;82.43;96196.22;5020284;28;20049;-48
2023/10/20 12:24:36;;;;;;;1.10;0.75;;;;;;;14.59;83.25;96199.75;5022407;28;20042;-50
2023/10/20 12:27:03;;;;;;;1.48;0.68;;;;;;;14.59;83.26;96189.34;5021324;28;20045;-50
2023/10/20 12:29:30;;;;;;;1.25;0.68;;;;;;;14.59;83.22;96197.16;5020894;28;20045;-46
2023/10/20 12:31:58;;;;;;;0.57;0.45;;;;;;;14.60;82.54;96193.63;5016722;28;20057;-50